sensor_id;sensor_type;location;lat;lon;timestamp;pressure;altitude;pressure_sealevel;temperature
15680;BMP180;15488;48.114;11.532;2022-10-16T00:01:28;95400.00;;;21.30
15680;BMP180;15488;48.114;11.532;2022-10-16T00:03:58;95398.00;;;21.30
15680;BMP180;15488;48.114;11.532;2022-10-16T00:06:27;95401.00;;;21.30
15680;BMP180;15488;48.114;11.532;2022-10-16T00:08:57;95396.00;;;21.20
15680;BMP180;15488;48.114;11.532;2022-10-16T00:11:27;95402.00;;;21.20
15680;BMP180;15488;48.114;11.532;2022-10-16T00:13:57;95401.00;;;21.20
15680;BMP180;15488;48.114;11.532;2022-10-16T00:16:24;95403.00;;;21.20
15680;BMP180;15488;48.114;11.532;2022-10-16T00:18:52;95402.00;;;21.20
15680;BMP180;15488;48.114;11.532;2022-10-16T00:21:23;95403.00;;;21.10
15680;BMP180;15488;48.114;11.532;2022-10-16T00:23:52;95399.00;;;21.10
15680;BMP180;15488;48.114;11.532;2022-10-16T00:26:20;95395.00;;;21.10
15680;BMP180;15488;48.114;11.532;2022-10-16T00:28:49;95407.00;;;21.10
15680;BMP180;15488;48.114;11.532;2022-10-16T00:31:18;95400.00;;;21.10
15680;BMP180;15488;48.114;11.532;2022-10-16T00:33:46;95409.00;;;21.10
15680;BMP180;15488;48.114;11.532;2022-10-16T00:36:15;95403.00;;;21.10
15680;BMP180;15488;48.114;11.532;2022-10-16T00:38:45;95405.00;;;21.10
15680;BMP180;15488;48.114;11.532;2022-10-16T00:41:15;95407.00;;;21.10
15680;BMP180;15488;48.114;11.532;2022-10-16T00:43:44;95404.00;;;21.10
15680;BMP180;15488;48.114;11.532;2022-10-16T00:46:17;95404.00;;;21.10
15680;BMP180;15488;48.114;11.532;2022-10-16T00:48:49;95400.00;;;21.10
15680;BMP180;15488;48.114;11.532;2022-10-16T00:51:21;95406.00;;;21.10
15680;BMP180;15488;48.114;11.532;2022-10-16T00:53:52;95403.00;;;21.10
15680;BMP180;15488;48.114;11.532;2022-10-16T00:56:19;95400.00;;;21.00
15680;BMP180;15488;48.114;11.532;2022-10-16T00:58:47;95400.00;;;21.00
15680;BMP180;15488;48.114;11.532;2022-10-16T01:01:15;95398.00;;;21.10
15680;BMP180;15488;48.114;11.532;2022-10-16T01:03:42;95408.00;;;21.10
15680;BMP180;15488;48.114;11.532;2022-10-16T01:06:22;95415.00;;;21.00
15680;BMP180;15488;48.114;11.532;2022-10-16T01:09:02;95417.00;;;21.00
15680;BMP180;15488;48.114;11.532;2022-10-16T01:11:38;95417.00;;;21.00
15680;BMP180;15488;48.114;11.532;2022-10-16T01:14:14;95417.00;;;21.00
15680;BMP180;15488;48.114;11.532;2022-10-16T01:16:46;95425.00;;;21.00
15680;BMP180;15488;48.114;11.532;2022-10-16T01:19:24;95429.00;;;21.00
15680;BMP180;15488;48.114;11.532;2022-10-16T01:21:53;95429.00;;;20.90
15680;BMP180;15488;48.114;11.532;2022-10-16T01:24:33;95425.00;;;20.90
15680;BMP180;15488;48.114;11.532;2022-10-16T01:27:12;95427.00;;;20.90
15680;BMP180;15488;48.114;11.532;2022-10-16T01:29:48;95375.00;;;20.90
15680;BMP180;15488;48.114;11.532;2022-10-16T01:32:27;95428.00;;;20.90
15680;BMP180;15488;48.114;11.532;2022-10-16T01:35:02;95430.00;;;20.90
15680;BMP180;15488;48.114;11.532;2022-10-16T01:37:34;95428.00;;;20.90
15680;BMP180;15488;48.114;11.532;2022-10-16T01:40:07;95429.00;;;20.90
15680;BMP180;15488;48.114;11.532;2022-10-16T01:42:40;95424.00;;;20.90
15680;BMP180;15488;48.114;11.532;2022-10-16T01:45:11;95425.00;;;20.90
15680;BMP180;15488;48.114;11.532;2022-10-16T01:47:40;95429.00;;;20.90
15680;BMP180;15488;48.114;11.532;2022-10-16T01:50:10;95420.00;;;20.90
15680;BMP180;15488;48.114;11.532;2022-10-16T01:52:46;95415.00;;;20.90
15680;BMP180;15488;48.114;11.532;2022-10-16T01:55:20;95420.00;;;20.90
15680;BMP180;15488;48.114;11.532;2022-10-16T01:57:51;95419.00;;;20.90
15680;BMP180;15488;48.114;11.532;2022-10-16T02:00:20;95409.00;;;20.90
15680;BMP180;15488;48.114;11.532;2022-10-16T02:02:51;95407.00;;;20.90
15680;BMP180;15488;48.114;11.532;2022-10-16T02:05:23;95404.00;;;20.90
15680;BMP180;15488;48.114;11.532;2022-10-16T02:07:52;95407.00;;;20.90
15680;BMP180;15488;48.114;11.532;2022-10-16T02:10:20;95408.00;;;20.90
15680;BMP180;15488;48.114;11.532;2022-10-16T02:12:53;95398.00;;;20.90
15680;BMP180;15488;48.114;11.532;2022-10-16T02:15:23;95392.00;;;20.90
15680;BMP180;15488;48.114;11.532;2022-10-16T02:17:50;95402.00;;;20.90
15680;BMP180;15488;48.114;11.532;2022-10-16T02:20:19;95404.00;;;20.90
15680;BMP180;15488;48.114;11.532;2022-10-16T02:22:49;95406.00;;;20.90
15680;BMP180;15488;48.114;11.532;2022-10-16T02:25:19;95410.00;;;20.90
15680;BMP180;15488;48.114;11.532;2022-10-16T02:27:55;95412.00;;;20.90
15680;BMP180;15488;48.114;11.532;2022-10-16T02:30:27;95402.00;;;20.70
15680;BMP180;15488;48.114;11.532;2022-10-16T02:32:57;95400.00;;;20.90
15680;BMP180;15488;48.114;11.532;2022-10-16T02:35:26;95406.00;;;20.90
15680;BMP180;15488;48.114;11.532;2022-10-16T02:37:55;95410.00;;;20.90
15680;BMP180;15488;48.114;11.532;2022-10-16T02:40:24;95411.00;;;20.90
15680;BMP180;15488;48.114;11.532;2022-10-16T02:42:54;95416.00;;;20.90
15680;BMP180;15488;48.114;11.532;2022-10-16T02:45:22;95408.00;;;20.90
15680;BMP180;15488;48.114;11.532;2022-10-16T02:47:50;95427.00;;;20.90
15680;BMP180;15488;48.114;11.532;2022-10-16T02:50:17;95430.00;;;20.90
15680;BMP180;15488;48.114;11.532;2022-10-16T02:52:45;95426.00;;;20.90
15680;BMP180;15488;48.114;11.532;2022-10-16T02:55:12;95434.00;;;20.90
15680;BMP180;15488;48.114;11.532;2022-10-16T02:57:40;95427.00;;;20.90
15680;BMP180;15488;48.114;11.532;2022-10-16T03:00:11;95424.00;;;20.90
15680;BMP180;15488;48.114;11.532;2022-10-16T03:02:39;95426.00;;;20.90
15680;BMP180;15488;48.114;11.532;2022-10-16T03:05:08;95428.00;;;20.90
15680;BMP180;15488;48.114;11.532;2022-10-16T03:07:36;95422.00;;;20.90
15680;BMP180;15488;48.114;11.532;2022-10-16T03:10:04;95421.00;;;20.90
15680;BMP180;15488;48.114;11.532;2022-10-16T03:12:32;95419.00;;;20.90
15680;BMP180;15488;48.114;11.532;2022-10-16T03:14:59;95421.00;;;20.90
15680;BMP180;15488;48.114;11.532;2022-10-16T03:17:28;95426.00;;;20.90
15680;BMP180;15488;48.114;11.532;2022-10-16T03:19:55;95422.00;;;20.90
15680;BMP180;15488;48.114;11.532;2022-10-16T03:22:23;95422.00;;;20.90
15680;BMP180;15488;48.114;11.532;2022-10-16T03:24:50;95429.00;;;20.90
15680;BMP180;15488;48.114;11.532;2022-10-16T03:27:18;95419.00;;;20.90
15680;BMP180;15488;48.114;11.532;2022-10-16T03:29:45;95428.00;;;20.90
15680;BMP180;15488;48.114;11.532;2022-10-16T03:32:13;95423.00;;;21.00
15680;BMP180;15488;48.114;11.532;2022-10-16T03:34:41;95420.00;;;20.90
15680;BMP180;15488;48.114;11.532;2022-10-16T03:37:09;95420.00;;;21.00
15680;BMP180;15488;48.114;11.532;2022-10-16T03:39:37;95424.00;;;21.00
15680;BMP180;15488;48.114;11.532;2022-10-16T03:42:04;95432.00;;;21.00
15680;BMP180;15488;48.114;11.532;2022-10-16T03:44:31;95432.00;;;21.00
15680;BMP180;15488;48.114;11.532;2022-10-16T03:46:59;95440.00;;;21.00
15680;BMP180;15488;48.114;11.532;2022-10-16T03:49:26;95442.00;;;21.00
15680;BMP180;15488;48.114;11.532;2022-10-16T03:51:55;95442.00;;;21.00
15680;BMP180;15488;48.114;11.532;2022-10-16T03:54:22;95433.00;;;21.00
15680;BMP180;15488;48.114;11.532;2022-10-16T03:56:50;95429.00;;;21.00
15680;BMP180;15488;48.114;11.532;2022-10-16T03:59:17;95422.00;;;21.00
15680;BMP180;15488;48.114;11.532;2022-10-16T04:01:45;95424.00;;;21.10
15680;BMP180;15488;48.114;11.532;2022-10-16T04:04:12;95429.00;;;21.10
15680;BMP180;15488;48.114;11.532;2022-10-16T04:06:40;95432.00;;;21.10
15680;BMP180;15488;48.114;11.532;2022-10-16T04:09:08;95426.00;;;21.10
15680;BMP180;15488;48.114;11.532;2022-10-16T04:11:36;95421.00;;;21.10
15680;BMP180;15488;48.114;11.532;2022-10-16T04:14:03;95425.00;;;21.20
15680;BMP180;15488;48.114;11.532;2022-10-16T04:16:31;95430.00;;;21.20
15680;BMP180;15488;48.114;11.532;2022-10-16T04:18:58;95422.00;;;21.20
15680;BMP180;15488;48.114;11.532;2022-10-16T04:21:25;95424.00;;;21.20
15680;BMP180;15488;48.114;11.532;2022-10-16T04:23:56;95430.00;;;21.20
15680;BMP180;15488;48.114;11.532;2022-10-16T04:26:25;95431.00;;;21.20
15680;BMP180;15488;48.114;11.532;2022-10-16T04:28:52;95434.00;;;21.30
15680;BMP180;15488;48.114;11.532;2022-10-16T04:31:20;95432.00;;;21.30
15680;BMP180;15488;48.114;11.532;2022-10-16T04:33:47;95428.00;;;21.30
15680;BMP180;15488;48.114;11.532;2022-10-16T04:36:15;95435.00;;;21.30
15680;BMP180;15488;48.114;11.532;2022-10-16T04:38:42;95434.00;;;21.30
15680;BMP180;15488;48.114;11.532;2022-10-16T04:41:10;95432.00;;;21.30
15680;BMP180;15488;48.114;11.532;2022-10-16T04:43:38;95439.00;;;21.30
15680;BMP180;15488;48.114;11.532;2022-10-16T04:46:06;95436.00;;;21.30
15680;BMP180;15488;48.114;11.532;2022-10-16T04:48:33;95439.00;;;21.30
15680;BMP180;15488;48.114;11.532;2022-10-16T04:51:01;95435.00;;;21.30
15680;BMP180;15488;48.114;11.532;2022-10-16T04:53:31;95434.00;;;21.30
15680;BMP180;15488;48.114;11.532;2022-10-16T04:55:59;95432.00;;;21.30
15680;BMP180;15488;48.114;11.532;2022-10-16T04:58:27;95423.00;;;21.30
15680;BMP180;15488;48.114;11.532;2022-10-16T05:00:56;95426.00;;;21.30
15680;BMP180;15488;48.114;11.532;2022-10-16T05:03:23;95429.00;;;21.40
15680;BMP180;15488;48.114;11.532;2022-10-16T05:05:50;95437.00;;;21.40
15680;BMP180;15488;48.114;11.532;2022-10-16T05:08:18;95434.00;;;21.40
15680;BMP180;15488;48.114;11.532;2022-10-16T05:10:45;95434.00;;;21.40
15680;BMP180;15488;48.114;11.532;2022-10-16T05:13:13;95432.00;;;21.40
15680;BMP180;15488;48.114;11.532;2022-10-16T05:15:40;95430.00;;;21.40
15680;BMP180;15488;48.114;11.532;2022-10-16T05:18:10;95431.00;;;21.40
15680;BMP180;15488;48.114;11.532;2022-10-16T05:20:37;95433.00;;;21.40
15680;BMP180;15488;48.114;11.532;2022-10-16T05:23:04;95429.00;;;21.40
15680;BMP180;15488;48.114;11.532;2022-10-16T05:25:32;95436.00;;;21.50
15680;BMP180;15488;48.114;11.532;2022-10-16T05:27:59;95437.00;;;21.40
15680;BMP180;15488;48.114;11.532;2022-10-16T05:30:27;95434.00;;;21.50
15680;BMP180;15488;48.114;11.532;2022-10-16T05:32:54;95432.00;;;21.50
15680;BMP180;15488;48.114;11.532;2022-10-16T05:35:23;95439.00;;;21.40
15680;BMP180;15488;48.114;11.532;2022-10-16T05:37:50;95441.00;;;21.50
15680;BMP180;15488;48.114;11.532;2022-10-16T05:40:22;95449.00;;;21.50
15680;BMP180;15488;48.114;11.532;2022-10-16T05:42:49;95464.00;;;21.50
15680;BMP180;15488;48.114;11.532;2022-10-16T05:45:17;95468.00;;;21.50
15680;BMP180;15488;48.114;11.532;2022-10-16T05:47:44;95467.00;;;21.50
15680;BMP180;15488;48.114;11.532;2022-10-16T05:50:11;95467.00;;;21.50
15680;BMP180;15488;48.114;11.532;2022-10-16T05:52:40;95467.00;;;21.50
15680;BMP180;15488;48.114;11.532;2022-10-16T05:55:08;95469.00;;;21.50
15680;BMP180;15488;48.114;11.532;2022-10-16T05:57:35;95470.00;;;21.50
15680;BMP180;15488;48.114;11.532;2022-10-16T06:00:03;95473.00;;;21.50
15680;BMP180;15488;48.114;11.532;2022-10-16T06:02:31;95470.00;;;21.50
15680;BMP180;15488;48.114;11.532;2022-10-16T06:04:58;95471.00;;;21.50
15680;BMP180;15488;48.114;11.532;2022-10-16T06:07:28;95467.00;;;21.50
15680;BMP180;15488;48.114;11.532;2022-10-16T06:09:57;95483.00;;;21.50
15680;BMP180;15488;48.114;11.532;2022-10-16T06:12:26;95483.00;;;21.50
15680;BMP180;15488;48.114;11.532;2022-10-16T06:14:53;95486.00;;;21.50
15680;BMP180;15488;48.114;11.532;2022-10-16T06:17:21;95484.00;;;21.50
15680;BMP180;15488;48.114;11.532;2022-10-16T06:19:48;95489.00;;;21.50
15680;BMP180;15488;48.114;11.532;2022-10-16T06:22:16;95485.00;;;21.50
15680;BMP180;15488;48.114;11.532;2022-10-16T06:24:43;95485.00;;;21.50
15680;BMP180;15488;48.114;11.532;2022-10-16T06:27:12;95488.00;;;21.50
15680;BMP180;15488;48.114;11.532;2022-10-16T06:29:39;95488.00;;;21.50
15680;BMP180;15488;48.114;11.532;2022-10-16T06:32:07;95502.00;;;21.50
15680;BMP180;15488;48.114;11.532;2022-10-16T06:34:34;95501.00;;;21.50
15680;BMP180;15488;48.114;11.532;2022-10-16T06:37:01;95503.00;;;21.50
15680;BMP180;15488;48.114;11.532;2022-10-16T06:39:29;95420.00;;;21.60
15680;BMP180;15488;48.114;11.532;2022-10-16T06:41:56;95509.00;;;21.60
15680;BMP180;15488;48.114;11.532;2022-10-16T06:44:25;95509.00;;;21.60
15680;BMP180;15488;48.114;11.532;2022-10-16T06:46:52;95514.00;;;21.60
15680;BMP180;15488;48.114;11.532;2022-10-16T06:49:20;95524.00;;;21.60
15680;BMP180;15488;48.114;11.532;2022-10-16T06:51:48;95519.00;;;21.60
15680;BMP180;15488;48.114;11.532;2022-10-16T06:54:16;95524.00;;;21.60
15680;BMP180;15488;48.114;11.532;2022-10-16T06:56:44;95524.00;;;21.60
15680;BMP180;15488;48.114;11.532;2022-10-16T06:59:12;95533.00;;;21.60
15680;BMP180;15488;48.114;11.532;2022-10-16T07:01:40;95537.00;;;21.60
15680;BMP180;15488;48.114;11.532;2022-10-16T07:04:08;95547.00;;;21.60
15680;BMP180;15488;48.114;11.532;2022-10-16T07:06:35;95541.00;;;21.60
15680;BMP180;15488;48.114;11.532;2022-10-16T07:09:05;95541.00;;;21.60
15680;BMP180;15488;48.114;11.532;2022-10-16T07:11:34;95540.00;;;21.60
15680;BMP180;15488;48.114;11.532;2022-10-16T07:14:01;95543.00;;;21.60
15680;BMP180;15488;48.114;11.532;2022-10-16T07:16:30;95563.00;;;21.60
15680;BMP180;15488;48.114;11.532;2022-10-16T07:19:00;95551.00;;;21.70
15680;BMP180;15488;48.114;11.532;2022-10-16T07:21:29;95550.00;;;21.70
15680;BMP180;15488;48.114;11.532;2022-10-16T07:24:01;95544.00;;;21.80
15680;BMP180;15488;48.114;11.532;2022-10-16T07:26:30;95548.00;;;21.80
15680;BMP180;15488;48.114;11.532;2022-10-16T07:28:58;95558.00;;;21.80
15680;BMP180;15488;48.114;11.532;2022-10-16T07:31:27;95567.00;;;21.90
15680;BMP180;15488;48.114;11.532;2022-10-16T07:33:54;95562.00;;;21.90
15680;BMP180;15488;48.114;11.532;2022-10-16T07:36:23;95564.00;;;21.90
15680;BMP180;15488;48.114;11.532;2022-10-16T07:38:51;95570.00;;;22.00
15680;BMP180;15488;48.114;11.532;2022-10-16T07:41:19;95573.00;;;22.00
15680;BMP180;15488;48.114;11.532;2022-10-16T07:43:47;95577.00;;;22.10
15680;BMP180;15488;48.114;11.532;2022-10-16T07:46:15;95585.00;;;22.20
15680;BMP180;15488;48.114;11.532;2022-10-16T07:48:44;95583.00;;;22.20
15680;BMP180;15488;48.114;11.532;2022-10-16T07:51:14;95591.00;;;22.30
15680;BMP180;15488;48.114;11.532;2022-10-16T07:53:43;95592.00;;;22.30
15680;BMP180;15488;48.114;11.532;2022-10-16T07:56:11;95587.00;;;22.30
15680;BMP180;15488;48.114;11.532;2022-10-16T07:58:38;95595.00;;;22.40
15680;BMP180;15488;48.114;11.532;2022-10-16T08:01:07;95598.00;;;22.40
15680;BMP180;15488;48.114;11.532;2022-10-16T08:03:36;95612.00;;;22.40
15680;BMP180;15488;48.114;11.532;2022-10-16T08:06:04;95600.00;;;22.40
15680;BMP180;15488;48.114;11.532;2022-10-16T08:08:32;95604.00;;;22.40
15680;BMP180;15488;48.114;11.532;2022-10-16T08:11:01;95601.00;;;22.50
15680;BMP180;15488;48.114;11.532;2022-10-16T08:13:29;95601.00;;;22.60
15680;BMP180;15488;48.114;11.532;2022-10-16T08:15:57;95600.00;;;22.60
15680;BMP180;15488;48.114;11.532;2022-10-16T08:18:24;95613.00;;;22.70
15680;BMP180;15488;48.114;11.532;2022-10-16T08:20:56;95601.00;;;22.70
15680;BMP180;15488;48.114;11.532;2022-10-16T08:23:24;95605.00;;;22.80
15680;BMP180;15488;48.114;11.532;2022-10-16T08:25:52;95608.00;;;22.80
15680;BMP180;15488;48.114;11.532;2022-10-16T08:28:22;95606.00;;;22.90
15680;BMP180;15488;48.114;11.532;2022-10-16T08:30:50;95615.00;;;23.00
15680;BMP180;15488;48.114;11.532;2022-10-16T08:33:17;95612.00;;;23.00
15680;BMP180;15488;48.114;11.532;2022-10-16T08:35:51;95615.00;;;23.10
15680;BMP180;15488;48.114;11.532;2022-10-16T08:38:19;95615.00;;;23.20
15680;BMP180;15488;48.114;11.532;2022-10-16T08:40:47;95618.00;;;23.30
15680;BMP180;15488;48.114;11.532;2022-10-16T08:43:47;95623.00;;;23.30
15680;BMP180;15488;48.114;11.532;2022-10-16T08:46:29;95623.00;;;23.40
15680;BMP180;15488;48.114;11.532;2022-10-16T08:49:00;95544.00;;;23.40
15680;BMP180;15488;48.114;11.532;2022-10-16T08:51:29;95617.00;;;23.40
15680;BMP180;15488;48.114;11.532;2022-10-16T08:53:59;95629.00;;;23.50
15680;BMP180;15488;48.114;11.532;2022-10-16T08:56:28;95641.00;;;23.60
15680;BMP180;15488;48.114;11.532;2022-10-16T08:58:58;95635.00;;;23.60
15680;BMP180;15488;48.114;11.532;2022-10-16T09:01:36;95639.00;;;23.70
15680;BMP180;15488;48.114;11.532;2022-10-16T09:04:20;95644.00;;;23.80
15680;BMP180;15488;48.114;11.532;2022-10-16T09:06:54;95648.00;;;23.90
15680;BMP180;15488;48.114;11.532;2022-10-16T09:09:43;95642.00;;;24.00
15680;BMP180;15488;48.114;11.532;2022-10-16T09:12:19;95653.00;;;24.10
15680;BMP180;15488;48.114;11.532;2022-10-16T09:15:01;95650.00;;;24.10
15680;BMP180;15488;48.114;11.532;2022-10-16T09:17:40;95647.00;;;24.20
15680;BMP180;15488;48.114;11.532;2022-10-16T09:20:28;95643.00;;;24.30
15680;BMP180;15488;48.114;11.532;2022-10-16T09:23:15;95648.00;;;24.40
15680;BMP180;15488;48.114;11.532;2022-10-16T09:25:45;95643.00;;;24.40
15680;BMP180;15488;48.114;11.532;2022-10-16T09:28:14;95643.00;;;24.50
15680;BMP180;15488;48.114;11.532;2022-10-16T09:30:43;95646.00;;;24.60
15680;BMP180;15488;48.114;11.532;2022-10-16T09:33:12;95650.00;;;24.60
15680;BMP180;15488;48.114;11.532;2022-10-16T09:35:42;95646.00;;;24.70
15680;BMP180;15488;48.114;11.532;2022-10-16T09:38:20;95644.00;;;24.80
15680;BMP180;15488;48.114;11.532;2022-10-16T09:40:48;95644.00;;;24.80
15680;BMP180;15488;48.114;11.532;2022-10-16T09:43:24;95647.00;;;24.90
15680;BMP180;15488;48.114;11.532;2022-10-16T09:45:57;95669.00;;;25.00
15680;BMP180;15488;48.114;11.532;2022-10-16T09:48:26;95656.00;;;25.00
15680;BMP180;15488;48.114;11.532;2022-10-16T09:50:58;95662.00;;;25.10
15680;BMP180;15488;48.114;11.532;2022-10-16T09:53:37;95657.00;;;25.10
15680;BMP180;15488;48.114;11.532;2022-10-16T09:56:05;95659.00;;;25.20
15680;BMP180;15488;48.114;11.532;2022-10-16T09:58:33;95661.00;;;25.30
15680;BMP180;15488;48.114;11.532;2022-10-16T10:01:02;95658.00;;;25.40
15680;BMP180;15488;48.114;11.532;2022-10-16T10:03:37;95668.00;;;25.50
15680;BMP180;15488;48.114;11.532;2022-10-16T10:06:15;95669.00;;;25.60
15680;BMP180;15488;48.114;11.532;2022-10-16T10:08:54;95668.00;;;25.70
15680;BMP180;15488;48.114;11.532;2022-10-16T10:14:24;95663.00;;;25.90
15680;BMP180;15488;48.114;11.532;2022-10-16T10:17:07;95655.00;;;26.00
15680;BMP180;15488;48.114;11.532;2022-10-16T10:19:39;95660.00;;;26.10
15680;BMP180;15488;48.114;11.532;2022-10-16T10:22:24;95661.00;;;26.20
15680;BMP180;15488;48.114;11.532;2022-10-16T10:24:56;95662.00;;;26.20
15680;BMP180;15488;48.114;11.532;2022-10-16T10:27:30;95665.00;;;26.30
15680;BMP180;15488;48.114;11.532;2022-10-16T10:30:03;95663.00;;;26.40
15680;BMP180;15488;48.114;11.532;2022-10-16T10:32:40;95660.00;;;26.50
15680;BMP180;15488;48.114;11.532;2022-10-16T10:35:19;95665.00;;;26.60
15680;BMP180;15488;48.114;11.532;2022-10-16T10:37:57;95664.00;;;26.70
15680;BMP180;15488;48.114;11.532;2022-10-16T10:40:37;95663.00;;;26.80
15680;BMP180;15488;48.114;11.532;2022-10-16T10:43:12;95665.00;;;26.80
15680;BMP180;15488;48.114;11.532;2022-10-16T10:45:43;95661.00;;;26.90
15680;BMP180;15488;48.114;11.532;2022-10-16T10:48:40;95669.00;;;27.00
15680;BMP180;15488;48.114;11.532;2022-10-16T10:51:15;95665.00;;;27.10
15680;BMP180;15488;48.114;11.532;2022-10-16T10:53:52;95662.00;;;27.20
15680;BMP180;15488;48.114;11.532;2022-10-16T10:56:40;95663.00;;;27.30
15680;BMP180;15488;48.114;11.532;2022-10-16T11:02:15;95664.00;;;27.50
15680;BMP180;15488;48.114;11.532;2022-10-16T11:05:25;95671.00;;;27.60
15680;BMP180;15488;48.114;11.532;2022-10-16T11:07:57;95671.00;;;27.70
15680;BMP180;15488;48.114;11.532;2022-10-16T11:10:27;95664.00;;;27.80
15680;BMP180;15488;48.114;11.532;2022-10-16T11:12:58;95658.00;;;27.80
15680;BMP180;15488;48.114;11.532;2022-10-16T11:15:34;95654.00;;;27.90
15680;BMP180;15488;48.114;11.532;2022-10-16T11:18:06;95662.00;;;28.00
15680;BMP180;15488;48.114;11.532;2022-10-16T11:20:40;95666.00;;;28.10
15680;BMP180;15488;48.114;11.532;2022-10-16T11:23:14;95662.00;;;28.20
15680;BMP180;15488;48.114;11.532;2022-10-16T11:25:46;95661.00;;;28.30
15680;BMP180;15488;48.114;11.532;2022-10-16T11:28:16;95663.00;;;28.30
15680;BMP180;15488;48.114;11.532;2022-10-16T11:30:49;95660.00;;;28.40
15680;BMP180;15488;48.114;11.532;2022-10-16T11:33:27;95659.00;;;28.50
15680;BMP180;15488;48.114;11.532;2022-10-16T11:36:03;95662.00;;;28.60
15680;BMP180;15488;48.114;11.532;2022-10-16T11:38:38;95663.00;;;28.70
15680;BMP180;15488;48.114;11.532;2022-10-16T11:41:13;95669.00;;;28.80
15680;BMP180;15488;48.114;11.532;2022-10-16T11:43:46;95657.00;;;28.80
15680;BMP180;15488;48.114;11.532;2022-10-16T11:46:19;95656.00;;;28.90
15680;BMP180;15488;48.114;11.532;2022-10-16T11:48:52;95656.00;;;29.00
15680;BMP180;15488;48.114;11.532;2022-10-16T11:51:29;95659.00;;;29.10
15680;BMP180;15488;48.114;11.532;2022-10-16T11:54:02;95660.00;;;29.30
15680;BMP180;15488;48.114;11.532;2022-10-16T11:56:32;95657.00;;;29.40
15680;BMP180;15488;48.114;11.532;2022-10-16T11:59:07;95657.00;;;29.50
15680;BMP180;15488;48.114;11.532;2022-10-16T12:01:40;95663.00;;;29.60
15680;BMP180;15488;48.114;11.532;2022-10-16T12:04:20;95662.00;;;29.70
15680;BMP180;15488;48.114;11.532;2022-10-16T12:06:55;95664.00;;;29.90
15680;BMP180;15488;48.114;11.532;2022-10-16T12:09:27;95665.00;;;30.10
15680;BMP180;15488;48.114;11.532;2022-10-16T12:11:56;95666.00;;;30.30
15680;BMP180;15488;48.114;11.532;2022-10-16T12:14:36;95665.00;;;30.50
15680;BMP180;15488;48.114;11.532;2022-10-16T12:19:58;95669.00;;;31.60
15680;BMP180;15488;48.114;11.532;2022-10-16T12:22:28;95662.00;;;32.20
15680;BMP180;15488;48.114;11.532;2022-10-16T12:24:57;95663.00;;;32.70
15680;BMP180;15488;48.114;11.532;2022-10-16T12:27:28;95666.00;;;32.90
15680;BMP180;15488;48.114;11.532;2022-10-16T12:29:58;95665.00;;;33.00
15680;BMP180;15488;48.114;11.532;2022-10-16T12:32:30;95663.00;;;32.90
15680;BMP180;15488;48.114;11.532;2022-10-16T12:34:59;95659.00;;;32.90
15680;BMP180;15488;48.114;11.532;2022-10-16T12:37:33;95659.00;;;32.90
15680;BMP180;15488;48.114;11.532;2022-10-16T12:40:15;95660.00;;;32.90
15680;BMP180;15488;48.114;11.532;2022-10-16T12:42:43;95655.00;;;32.80
15680;BMP180;15488;48.114;11.532;2022-10-16T12:45:25;95661.00;;;32.80
15680;BMP180;15488;48.114;11.532;2022-10-16T12:47:54;95663.00;;;32.70
15680;BMP180;15488;48.114;11.532;2022-10-16T12:50:25;95654.00;;;32.70
15680;BMP180;15488;48.114;11.532;2022-10-16T12:52:55;95657.00;;;32.80
15680;BMP180;15488;48.114;11.532;2022-10-16T12:55:23;95656.00;;;32.90
15680;BMP180;15488;48.114;11.532;2022-10-16T12:58:08;95652.00;;;33.10
15680;BMP180;15488;48.114;11.532;2022-10-16T13:00:43;95657.00;;;33.30
15680;BMP180;15488;48.114;11.532;2022-10-16T13:03:35;95656.00;;;33.60
15680;BMP180;15488;48.114;11.532;2022-10-16T13:06:17;95651.00;;;34.00
15680;BMP180;15488;48.114;11.532;2022-10-16T13:09:05;95649.00;;;34.50
15680;BMP180;15488;48.114;11.532;2022-10-16T13:11:47;95653.00;;;35.10
15680;BMP180;15488;48.114;11.532;2022-10-16T13:14:33;95650.00;;;35.90
15680;BMP180;15488;48.114;11.532;2022-10-16T13:17:11;95653.00;;;36.90
15680;BMP180;15488;48.114;11.532;2022-10-16T13:19:45;95655.00;;;37.90
15680;BMP180;15488;48.114;11.532;2022-10-16T13:22:20;95661.00;;;39.10
15680;BMP180;15488;48.114;11.532;2022-10-16T13:25:02;95667.00;;;40.60
15680;BMP180;15488;48.114;11.532;2022-10-16T13:27:39;95659.00;;;41.80
15680;BMP180;15488;48.114;11.532;2022-10-16T13:30:14;95666.00;;;43.10
15680;BMP180;15488;48.114;11.532;2022-10-16T13:32:45;95664.00;;;44.30
15680;BMP180;15488;48.114;11.532;2022-10-16T13:35:23;95668.00;;;45.40
15680;BMP180;15488;48.114;11.532;2022-10-16T13:37:51;95664.00;;;46.20
15680;BMP180;15488;48.114;11.532;2022-10-16T13:40:22;95665.00;;;47.00
15680;BMP180;15488;48.114;11.532;2022-10-16T13:42:50;95670.00;;;47.70
15680;BMP180;15488;48.114;11.532;2022-10-16T13:45:20;95669.00;;;48.30
15680;BMP180;15488;48.114;11.532;2022-10-16T13:47:48;95668.00;;;48.80
15680;BMP180;15488;48.114;11.532;2022-10-16T13:50:17;95676.00;;;49.30
15680;BMP180;15488;48.114;11.532;2022-10-16T13:52:45;95676.00;;;49.70
15680;BMP180;15488;48.114;11.532;2022-10-16T13:55:13;95681.00;;;50.10
15680;BMP180;15488;48.114;11.532;2022-10-16T13:57:42;95685.00;;;50.40
15680;BMP180;15488;48.114;11.532;2022-10-16T14:00:21;95684.00;;;50.80
15680;BMP180;15488;48.114;11.532;2022-10-16T14:03:01;95685.00;;;51.00
15680;BMP180;15488;48.114;11.532;2022-10-16T14:05:29;95690.00;;;51.10
15680;BMP180;15488;48.114;11.532;2022-10-16T14:07:57;95693.00;;;51.30
15680;BMP180;15488;48.114;11.532;2022-10-16T14:10:27;95692.00;;;51.40
15680;BMP180;15488;48.114;11.532;2022-10-16T14:12:59;95693.00;;;51.50
15680;BMP180;15488;48.114;11.532;2022-10-16T14:15:27;95693.00;;;51.50
15680;BMP180;15488;48.114;11.532;2022-10-16T14:17:56;95699.00;;;51.50
15680;BMP180;15488;48.114;11.532;2022-10-16T14:20:27;95695.00;;;51.40
15680;BMP180;15488;48.114;11.532;2022-10-16T14:23:02;95700.00;;;51.30
15680;BMP180;15488;48.114;11.532;2022-10-16T14:25:30;95697.00;;;51.00
15680;BMP180;15488;48.114;11.532;2022-10-16T14:28:02;95699.00;;;50.60